Singers Glen, Virginia
Current Conditions -  °F | °C
As of 4:35 PM on Thursday 18 Dec 2014 (Local Time) from KVBW Reporting Station
Overcast Overcast  
Wind Chill: 38°   Ceiling: 12000
Heat Index: 38°   Visibility: 10mi
Dew Point: 22°   Wind: 0mph
Humidity: 53%   Direction: NA
Pressure: 30.05"   Gusts: NA
Location:  38.55°N, 78.91°W
Report Text: KVBW 182135Z AUTO 00000KT 10SM OVC120 04/M05 A3005 RMK AO2 T00351053
Loading
Personal Weather Stations






























Interactive Weather Map New forecast layout! Learn more

10-Day Weather Forecast

Advertisements
Track Severe Weather on mobile